sensor_id;sensor_type;location;lat;lon;timestamp;pressure;altitude;pressure_sealevel;temperature;humidity
49945;BME280;35838;49.134;9.212;2023-07-02T03:09:27;99310.44;;;17.93;100.00
49945;BME280;35838;49.134;9.212;2023-07-02T03:11:01;99305.50;;;18.06;100.00
49945;BME280;35838;49.134;9.212;2023-07-02T03:12:32;99312.34;;;17.90;100.00
49945;BME280;35838;49.134;9.212;2023-07-02T03:14:05;99325.88;;;18.01;100.00
49945;BME280;35838;49.134;9.212;2023-07-02T03:15:36;99325.84;;;17.80;100.00
49945;BME280;35838;49.134;9.212;2023-07-02T03:17:10;99331.09;;;17.80;100.00
49945;BME280;35838;49.134;9.212;2023-07-02T03:18:41;99335.56;;;17.78;100.00
49945;BME280;35838;49.134;9.212;2023-07-02T03:20:15;99332.22;;;17.75;100.00
49945;BME280;35838;49.134;9.212;2023-07-02T03:21:47;99332.59;;;17.65;100.00
49945;BME280;35838;49.134;9.212;2023-07-02T03:23:21;99326.75;;;17.59;100.00
49945;BME280;35838;49.134;9.212;2023-07-02T03:24:54;99337.06;;;17.63;100.00
49945;BME280;35838;49.134;9.212;2023-07-02T03:26:28;99334.25;;;17.68;100.00
49945;BME280;35838;49.134;9.212;2023-07-02T03:28:01;99340.44;;;17.67;100.00
49945;BME280;35838;49.134;9.212;2023-07-02T03:29:35;99346.41;;;17.70;100.00
49945;BME280;35838;49.134;9.212;2023-07-02T03:31:08;99351.81;;;17.45;100.00
49945;BME280;35838;49.134;9.212;2023-07-02T03:32:42;99343.88;;;17.47;100.00
49945;BME280;35838;49.134;9.212;2023-07-02T03:34:13;99350.72;;;17.51;100.00
49945;BME280;35838;49.134;9.212;2023-07-02T03:35:46;99351.31;;;17.58;100.00
49945;BME280;35838;49.134;9.212;2023-07-02T03:37:18;99361.22;;;17.51;100.00
49945;BME280;35838;49.134;9.212;2023-07-02T03:38:51;99353.53;;;17.46;100.00
49945;BME280;35838;49.134;9.212;2023-07-02T03:40:27;99359.19;;;17.58;100.00
49945;BME280;35838;49.134;9.212;2023-07-02T03:41:58;99356.53;;;17.37;100.00
49945;BME280;35838;49.134;9.212;2023-07-02T03:43:32;99358.88;;;17.43;100.00
49945;BME280;35838;49.134;9.212;2023-07-02T03:45:03;99366.47;;;17.29;100.00
49945;BME280;35838;49.134;9.212;2023-07-02T03:46:37;99364.69;;;17.29;100.00
49945;BME280;35838;49.134;9.212;2023-07-02T03:48:08;99373.25;;;17.34;100.00
49945;BME280;35838;49.134;9.212;2023-07-02T03:49:42;99369.28;;;17.24;100.00
49945;BME280;35838;49.134;9.212;2023-07-02T03:51:13;99369.22;;;17.26;100.00
49945;BME280;35838;49.134;9.212;2023-07-02T03:52:47;99364.50;;;17.34;100.00
49945;BME280;35838;49.134;9.212;2023-07-02T03:54:18;99374.41;;;17.27;100.00
49945;BME280;35838;49.134;9.212;2023-07-02T03:55:54;99377.31;;;17.42;100.00
49945;BME280;35838;49.134;9.212;2023-07-02T03:57:28;99381.59;;;17.44;100.00
49945;BME280;35838;49.134;9.212;2023-07-02T03:59:02;99378.78;;;17.27;100.00
49945;BME280;35838;49.134;9.212;2023-07-02T04:00:35;99383.22;;;17.25;100.00
49945;BME280;35838;49.134;9.212;2023-07-02T04:02:09;99377.16;;;17.24;100.00
49945;BME280;35838;49.134;9.212;2023-07-02T04:03:41;99382.31;;;17.26;100.00
49945;BME280;35838;49.134;9.212;2023-07-02T04:05:15;99383.78;;;17.33;100.00
49945;BME280;35838;49.134;9.212;2023-07-02T04:06:50;99380.75;;;17.21;100.00
49945;BME280;35838;49.134;9.212;2023-07-02T04:08:24;99383.19;;;17.04;100.00
49945;BME280;35838;49.134;9.212;2023-07-02T04:09:58;99385.44;;;17.13;100.00
49945;BME280;35838;49.134;9.212;2023-07-02T04:11:35;99389.03;;;17.11;100.00
49945;BME280;35838;49.134;9.212;2023-07-02T04:13:08;99396.50;;;17.21;100.00
49945;BME280;35838;49.134;9.212;2023-07-02T04:14:42;99392.88;;;17.02;100.00
49945;BME280;35838;49.134;9.212;2023-07-02T04:16:13;99399.59;;;16.85;100.00
49945;BME280;35838;49.134;9.212;2023-07-02T04:17:47;99403.59;;;16.96;100.00
49945;BME280;35838;49.134;9.212;2023-07-02T04:19:20;99403.47;;;16.99;100.00
49945;BME280;35838;49.134;9.212;2023-07-02T04:20:54;99411.53;;;16.92;100.00
49945;BME280;35838;49.134;9.212;2023-07-02T04:22:27;99413.94;;;16.75;100.00
49945;BME280;35838;49.134;9.212;2023-07-02T04:24:01;99401.06;;;16.92;100.00
49945;BME280;35838;49.134;9.212;2023-07-02T04:25:35;99410.34;;;17.01;100.00
49945;BME280;35838;49.134;9.212;2023-07-02T04:27:08;99405.38;;;17.17;100.00
49945;BME280;35838;49.134;9.212;2023-07-02T04:28:43;99403.06;;;17.32;100.00
49945;BME280;35838;49.134;9.212;2023-07-02T04:30:14;99408.44;;;17.29;100.00
49945;BME280;35838;49.134;9.212;2023-07-02T04:31:48;99408.50;;;17.05;100.00
49945;BME280;35838;49.134;9.212;2023-07-02T04:33:22;99419.88;;;17.04;100.00
49945;BME280;35838;49.134;9.212;2023-07-02T04:34:53;99421.81;;;16.99;100.00
49945;BME280;35838;49.134;9.212;2023-07-02T04:36:26;99410.88;;;17.11;100.00
49945;BME280;35838;49.134;9.212;2023-07-02T04:38:01;99414.59;;;17.28;100.00
49945;BME280;35838;49.134;9.212;2023-07-02T04:39:34;99411.84;;;17.31;100.00
49945;BME280;35838;49.134;9.212;2023-07-02T04:41:08;99411.16;;;17.26;100.00
49945;BME280;35838;49.134;9.212;2023-07-02T04:42:44;99408.97;;;17.37;100.00
49945;BME280;35838;49.134;9.212;2023-07-02T04:44:19;99411.22;;;17.46;100.00
49945;BME280;35838;49.134;9.212;2023-07-02T04:46:00;99411.06;;;17.29;100.00
49945;BME280;35838;49.134;9.212;2023-07-02T04:47:33;99414.22;;;17.37;100.00
49945;BME280;35838;49.134;9.212;2023-07-02T04:49:05;99412.25;;;17.42;100.00
49945;BME280;35838;49.134;9.212;2023-07-02T04:50:38;99415.25;;;17.33;100.00
49945;BME280;35838;49.134;9.212;2023-07-02T04:52:12;99418.84;;;17.08;100.00
49945;BME280;35838;49.134;9.212;2023-07-02T04:53:43;99426.69;;;17.08;100.00
49945;BME280;35838;49.134;9.212;2023-07-02T04:55:16;99437.38;;;17.26;100.00
49945;BME280;35838;49.134;9.212;2023-07-02T04:56:47;99426.88;;;17.03;100.00
49945;BME280;35838;49.134;9.212;2023-07-02T04:58:24;99435.69;;;17.25;100.00
49945;BME280;35838;49.134;9.212;2023-07-02T04:59:57;99437.91;;;17.12;100.00
49945;BME280;35838;49.134;9.212;2023-07-02T05:01:31;99441.34;;;17.14;100.00
49945;BME280;35838;49.134;9.212;2023-07-02T05:03:05;99435.13;;;17.16;100.00
49945;BME280;35838;49.134;9.212;2023-07-02T05:04:36;99438.63;;;17.17;100.00
49945;BME280;35838;49.134;9.212;2023-07-02T05:06:10;99428.19;;;17.37;100.00
49945;BME280;35838;49.134;9.212;2023-07-02T05:07:41;99423.47;;;17.46;100.00
49945;BME280;35838;49.134;9.212;2023-07-02T05:09:15;99423.56;;;17.44;100.00
49945;BME280;35838;49.134;9.212;2023-07-02T05:10:46;99430.06;;;17.56;100.00
49945;BME280;35838;49.134;9.212;2023-07-02T05:12:19;99426.22;;;17.65;100.00
49945;BME280;35838;49.134;9.212;2023-07-02T05:13:55;99431.53;;;17.63;100.00
49945;BME280;35838;49.134;9.212;2023-07-02T05:15:29;99429.50;;;17.70;100.00
49945;BME280;35838;49.134;9.212;2023-07-02T05:17:03;99431.34;;;17.68;100.00
49945;BME280;35838;49.134;9.212;2023-07-02T05:18:34;99429.75;;;17.64;100.00
49945;BME280;35838;49.134;9.212;2023-07-02T05:20:08;99435.47;;;17.74;100.00
49945;BME280;35838;49.134;9.212;2023-07-02T05:21:39;99436.72;;;17.65;100.00
49945;BME280;35838;49.134;9.212;2023-07-02T05:23:13;99444.47;;;17.46;100.00
49945;BME280;35838;49.134;9.212;2023-07-02T05:24:48;99438.09;;;17.53;100.00
49945;BME280;35838;49.134;9.212;2023-07-02T05:26:21;99443.53;;;17.69;100.00
49945;BME280;35838;49.134;9.212;2023-07-02T05:27:56;99445.53;;;17.42;100.00
49945;BME280;35838;49.134;9.212;2023-07-02T05:29:30;99451.13;;;17.54;100.00
49945;BME280;35838;49.134;9.212;2023-07-02T05:31:03;99451.84;;;17.36;100.00
49945;BME280;35838;49.134;9.212;2023-07-02T05:32:37;99455.22;;;17.39;100.00
49945;BME280;35838;49.134;9.212;2023-07-02T05:34:11;99447.66;;;17.54;100.00
49945;BME280;35838;49.134;9.212;2023-07-02T05:35:45;99452.66;;;17.38;100.00
49945;BME280;35838;49.134;9.212;2023-07-02T05:37:16;99451.97;;;17.33;100.00
49945;BME280;35838;49.134;9.212;2023-07-02T05:38:50;99443.56;;;17.47;100.00
49945;BME280;35838;49.134;9.212;2023-07-02T05:40:21;99449.66;;;17.47;100.00
49945;BME280;35838;49.134;9.212;2023-07-02T05:41:54;99444.16;;;17.53;100.00
49945;BME280;35838;49.134;9.212;2023-07-02T05:43:25;99446.00;;;17.51;100.00
49945;BME280;35838;49.134;9.212;2023-07-02T05:45:02;99454.28;;;17.63;100.00
49945;BME280;35838;49.134;9.212;2023-07-02T05:46:35;99445.94;;;17.31;100.00
49945;BME280;35838;49.134;9.212;2023-07-02T05:48:06;99458.91;;;17.34;100.00
49945;BME280;35838;49.134;9.212;2023-07-02T05:49:40;99455.00;;;17.22;100.00
49945;BME280;35838;49.134;9.212;2023-07-02T05:51:14;99457.88;;;17.16;100.00
49945;BME280;35838;49.134;9.212;2023-07-02T05:52:52;99461.91;;;17.25;100.00
49945;BME280;35838;49.134;9.212;2023-07-02T05:54:26;99461.25;;;17.42;100.00
49945;BME280;35838;49.134;9.212;2023-07-02T05:55:57;99467.13;;;17.48;100.00
49945;BME280;35838;49.134;9.212;2023-07-02T05:57:31;99464.00;;;17.61;100.00
49945;BME280;35838;49.134;9.212;2023-07-02T05:59:04;99470.78;;;17.44;100.00
49945;BME280;35838;49.134;9.212;2023-07-02T06:00:41;99477.38;;;17.54;100.00
49945;BME280;35838;49.134;9.212;2023-07-02T06:02:19;99462.34;;;17.36;100.00
49945;BME280;35838;49.134;9.212;2023-07-02T06:03:53;99468.25;;;17.41;100.00
49945;BME280;35838;49.134;9.212;2023-07-02T06:05:24;99463.25;;;17.57;100.00
49945;BME280;35838;49.134;9.212;2023-07-02T06:06:57;99456.72;;;17.67;100.00
49945;BME280;35838;49.134;9.212;2023-07-02T06:08:31;99454.19;;;17.66;100.00
49945;BME280;35838;49.134;9.212;2023-07-02T06:10:02;99451.22;;;17.74;100.00
49945;BME280;35838;49.134;9.212;2023-07-02T06:11:36;99455.25;;;17.82;100.00
49945;BME280;35838;49.134;9.212;2023-07-02T06:13:08;99451.56;;;17.86;100.00
49945;BME280;35838;49.134;9.212;2023-07-02T06:14:42;99451.72;;;17.83;100.00
49945;BME280;35838;49.134;9.212;2023-07-02T06:16:19;99446.09;;;17.93;100.00
49945;BME280;35838;49.134;9.212;2023-07-02T06:17:50;99452.63;;;17.82;100.00
49945;BME280;35838;49.134;9.212;2023-07-02T06:19:23;99460.75;;;17.76;100.00
49945;BME280;35838;49.134;9.212;2023-07-02T06:20:57;99456.72;;;17.90;100.00
49945;BME280;35838;49.134;9.212;2023-07-02T06:22:30;99460.81;;;17.97;100.00
49945;BME280;35838;49.134;9.212;2023-07-02T06:24:04;99462.59;;;17.96;100.00
49945;BME280;35838;49.134;9.212;2023-07-02T06:25:38;99455.59;;;17.95;100.00
49945;BME280;35838;49.134;9.212;2023-07-02T06:27:12;99464.75;;;18.07;100.00
49945;BME280;35838;49.134;9.212;2023-07-02T06:28:43;99451.97;;;18.20;100.00
49945;BME280;35838;49.134;9.212;2023-07-02T06:30:16;99456.38;;;18.20;100.00
49945;BME280;35838;49.134;9.212;2023-07-02T06:31:50;99459.91;;;18.19;100.00
49945;BME280;35838;49.134;9.212;2023-07-02T06:33:24;99466.09;;;18.17;100.00
49945;BME280;35838;49.134;9.212;2023-07-02T06:34:57;99466.28;;;17.91;100.00
49945;BME280;35838;49.134;9.212;2023-07-02T06:36:31;99469.06;;;17.65;100.00
49945;BME280;35838;49.134;9.212;2023-07-02T06:38:05;99466.75;;;17.58;100.00
49945;BME280;35838;49.134;9.212;2023-07-02T06:39:38;99464.41;;;17.72;100.00
49945;BME280;35838;49.134;9.212;2023-07-02T06:41:12;99465.41;;;17.69;100.00
49945;BME280;35838;49.134;9.212;2023-07-02T06:42:46;99462.78;;;17.69;100.00
49945;BME280;35838;49.134;9.212;2023-07-02T06:44:19;99473.31;;;17.68;100.00
49945;BME280;35838;49.134;9.212;2023-07-02T06:45:53;99466.66;;;17.81;100.00
49945;BME280;35838;49.134;9.212;2023-07-02T06:47:29;99477.16;;;17.81;100.00
49945;BME280;35838;49.134;9.212;2023-07-02T06:49:03;99472.56;;;17.86;100.00
49945;BME280;35838;49.134;9.212;2023-07-02T06:50:37;99474.16;;;17.91;100.00
49945;BME280;35838;49.134;9.212;2023-07-02T06:52:08;99472.91;;;18.01;100.00
49945;BME280;35838;49.134;9.212;2023-07-02T06:53:41;99470.47;;;17.95;100.00
49945;BME280;35838;49.134;9.212;2023-07-02T06:55:15;99475.56;;;17.99;100.00
49945;BME280;35838;49.134;9.212;2023-07-02T06:56:49;99463.56;;;17.94;100.00
49945;BME280;35838;49.134;9.212;2023-07-02T06:58:22;99466.47;;;18.08;100.00
49945;BME280;35838;49.134;9.212;2023-07-02T06:59:57;99473.06;;;18.19;100.00
49945;BME280;35838;49.134;9.212;2023-07-02T07:01:31;99470.81;;;18.09;100.00
49945;BME280;35838;49.134;9.212;2023-07-02T07:03:08;99474.38;;;18.29;100.00
49945;BME280;35838;49.134;9.212;2023-07-02T07:04:39;99469.34;;;18.23;100.00
49945;BME280;35838;49.134;9.212;2023-07-02T07:06:13;99464.09;;;18.23;100.00
49945;BME280;35838;49.134;9.212;2023-07-02T07:07:46;99458.63;;;18.29;100.00
49945;BME280;35838;49.134;9.212;2023-07-02T07:09:20;99458.19;;;18.38;100.00
49945;BME280;35838;49.134;9.212;2023-07-02T07:10:54;99454.50;;;18.22;100.00
49945;BME280;35838;49.134;9.212;2023-07-02T07:12:25;99465.94;;;18.21;100.00
49945;BME280;35838;49.134;9.212;2023-07-02T07:13:58;99463.78;;;18.10;100.00
49945;BME280;35838;49.134;9.212;2023-07-02T07:15:32;99469.19;;;18.07;100.00
49945;BME280;35838;49.134;9.212;2023-07-02T07:17:06;99471.06;;;18.24;100.00
49945;BME280;35838;49.134;9.212;2023-07-02T07:18:43;99464.63;;;18.31;100.00
49945;BME280;35838;49.134;9.212;2023-07-02T07:20:16;99461.75;;;18.37;100.00
49945;BME280;35838;49.134;9.212;2023-07-02T07:21:50;99463.19;;;18.44;100.00
49945;BME280;35838;49.134;9.212;2023-07-02T07:23:24;99473.44;;;18.51;100.00
49945;BME280;35838;49.134;9.212;2023-07-02T07:24:57;99463.72;;;18.32;100.00
49945;BME280;35838;49.134;9.212;2023-07-02T07:26:28;99457.97;;;18.43;100.00
49945;BME280;35838;49.134;9.212;2023-07-02T07:28:02;99459.38;;;18.52;100.00
49945;BME280;35838;49.134;9.212;2023-07-02T07:29:36;99470.47;;;18.58;100.00
49945;BME280;35838;49.134;9.212;2023-07-02T07:31:07;99465.34;;;18.55;100.00
49945;BME280;35838;49.134;9.212;2023-07-02T07:32:41;99480.38;;;18.52;100.00
49945;BME280;35838;49.134;9.212;2023-07-02T07:34:14;99472.84;;;18.44;100.00
49945;BME280;35838;49.134;9.212;2023-07-02T07:35:48;99468.28;;;18.47;100.00
49945;BME280;35838;49.134;9.212;2023-07-02T07:37:21;99471.41;;;18.37;100.00
49945;BME280;35838;49.134;9.212;2023-07-02T07:38:55;99484.22;;;18.44;100.00
49945;BME280;35838;49.134;9.212;2023-07-02T07:40:29;99472.22;;;18.58;100.00
49945;BME280;35838;49.134;9.212;2023-07-02T07:42:03;99479.00;;;18.63;100.00
49945;BME280;35838;49.134;9.212;2023-07-02T07:43:36;99475.25;;;18.69;100.00
49945;BME280;35838;49.134;9.212;2023-07-02T07:45:10;99481.63;;;18.63;100.00
49945;BME280;35838;49.134;9.212;2023-07-02T07:46:44;99484.03;;;18.68;100.00
49945;BME280;35838;49.134;9.212;2023-07-02T07:48:18;99473.19;;;18.76;100.00
49945;BME280;35838;49.134;9.212;2023-07-02T07:49:54;99480.44;;;18.71;100.00
49945;BME280;35838;49.134;9.212;2023-07-02T07:51:28;99485.22;;;18.82;100.00
49945;BME280;35838;49.134;9.212;2023-07-02T07:53:01;99480.72;;;18.84;100.00
49945;BME280;35838;49.134;9.212;2023-07-02T07:54:35;99482.91;;;18.55;100.00
49945;BME280;35838;49.134;9.212;2023-07-02T07:56:09;99473.44;;;18.51;100.00
49945;BME280;35838;49.134;9.212;2023-07-02T07:57:42;99467.69;;;18.61;100.00
49945;BME280;35838;49.134;9.212;2023-07-02T07:59:16;99463.53;;;18.76;100.00
49945;BME280;35838;49.134;9.212;2023-07-02T08:00:50;99465.22;;;18.98;100.00
49945;BME280;35838;49.134;9.212;2023-07-02T08:02:23;99475.81;;;19.16;100.00
49945;BME280;35838;49.134;9.212;2023-07-02T08:03:54;99465.66;;;19.08;100.00
49945;BME280;35838;49.134;9.212;2023-07-02T08:05:31;99468.84;;;19.15;100.00
49945;BME280;35838;49.134;9.212;2023-07-02T08:07:02;99470.97;;;19.06;100.00
49945;BME280;35838;49.134;9.212;2023-07-02T08:08:37;99477.25;;;19.23;100.00
49945;BME280;35838;49.134;9.212;2023-07-02T08:10:10;99491.44;;;19.00;100.00
49945;BME280;35838;49.134;9.212;2023-07-02T08:11:44;99473.16;;;18.97;100.00
49945;BME280;35838;49.134;9.212;2023-07-02T08:13:18;99479.09;;;19.02;100.00
49945;BME280;35838;49.134;9.212;2023-07-02T08:14:51;99492.75;;;18.89;100.00
49945;BME280;35838;49.134;9.212;2023-07-02T08:16:25;99475.13;;;18.72;100.00
49945;BME280;35838;49.134;9.212;2023-07-02T08:17:58;99475.75;;;18.77;100.00
49945;BME280;35838;49.134;9.212;2023-07-02T08:19:34;99473.91;;;18.79;100.00
49945;BME280;35838;49.134;9.212;2023-07-02T08:21:10;99480.34;;;18.93;100.00
49945;BME280;35838;49.134;9.212;2023-07-02T08:22:44;99475.22;;;18.90;100.00
49945;BME280;35838;49.134;9.212;2023-07-02T08:24:18;99468.00;;;18.95;100.00
49945;BME280;35838;49.134;9.212;2023-07-02T08:25:51;99478.09;;;19.04;100.00
49945;BME280;35838;49.134;9.212;2023-07-02T08:27:25;99470.81;;;19.09;100.00
49945;BME280;35838;49.134;9.212;2023-07-02T08:28:59;99470.53;;;19.35;100.00
49945;BME280;35838;49.134;9.212;2023-07-02T08:30:32;99471.09;;;19.41;100.00
49945;BME280;35838;49.134;9.212;2023-07-02T08:32:07;99472.06;;;19.58;100.00
49945;BME280;35838;49.134;9.212;2023-07-02T08:33:40;99473.13;;;19.54;100.00
49945;BME280;35838;49.134;9.212;2023-07-02T08:35:14;99477.16;;;19.44;100.00
49945;BME280;35838;49.134;9.212;2023-07-02T08:36:50;99472.47;;;19.31;100.00
49945;BME280;35838;49.134;9.212;2023-07-02T08:38:24;99476.09;;;19.09;100.00
49945;BME280;35838;49.134;9.212;2023-07-02T08:39:58;99482.72;;;19.18;100.00
49945;BME280;35838;49.134;9.212;2023-07-02T08:41:29;99476.38;;;19.22;100.00
49945;BME280;35838;49.134;9.212;2023-07-02T08:43:03;99476.22;;;19.25;100.00
49945;BME280;35838;49.134;9.212;2023-07-02T08:44:36;99472.09;;;19.20;100.00
49945;BME280;35838;49.134;9.212;2023-07-02T08:46:10;99481.09;;;19.16;100.00
49945;BME280;35838;49.134;9.212;2023-07-02T08:47:41;99485.13;;;19.23;100.00
49945;BME280;35838;49.134;9.212;2023-07-02T08:49:15;99486.31;;;19.35;100.00
49945;BME280;35838;49.134;9.212;2023-07-02T08:50:49;99494.72;;;19.24;100.00
49945;BME280;35838;49.134;9.212;2023-07-02T08:52:25;99495.44;;;19.28;100.00
49945;BME280;35838;49.134;9.212;2023-07-02T08:53:59;99484.25;;;19.41;100.00
49945;BME280;35838;49.134;9.212;2023-07-02T08:55:32;99488.88;;;19.36;100.00
49945;BME280;35838;49.134;9.212;2023-07-02T08:57:06;99498.28;;;19.23;100.00
49945;BME280;35838;49.134;9.212;2023-07-02T08:58:40;99486.34;;;19.16;100.00
49945;BME280;35838;49.134;9.212;2023-07-02T09:00:14;99493.16;;;19.20;100.00
49945;BME280;35838;49.134;9.212;2023-07-02T09:01:48;99489.75;;;19.37;100.00
49945;BME280;35838;49.134;9.212;2023-07-02T09:03:19;99488.16;;;19.52;100.00
49945;BME280;35838;49.134;9.212;2023-07-02T09:04:58;99497.16;;;19.65;100.00
49945;BME280;35838;49.134;9.212;2023-07-02T09:06:32;99483.78;;;19.70;100.00
49945;BME280;35838;49.134;9.212;2023-07-02T09:08:08;99506.44;;;19.55;100.00
49945;BME280;35838;49.134;9.212;2023-07-02T09:09:45;99495.41;;;19.47;100.00
49945;BME280;35838;49.134;9.212;2023-07-02T09:11:19;99499.63;;;19.51;100.00
49945;BME280;35838;49.134;9.212;2023-07-02T09:13:02;99492.28;;;19.38;100.00
49945;BME280;35838;49.134;9.212;2023-07-02T09:14:35;99491.88;;;19.48;100.00
49945;BME280;35838;49.134;9.212;2023-07-02T09:16:19;99494.78;;;19.41;100.00
49945;BME280;35838;49.134;9.212;2023-07-02T09:17:53;99488.31;;;19.49;100.00
49945;BME280;35838;49.134;9.212;2023-07-02T09:19:27;99496.16;;;19.68;100.00
49945;BME280;35838;49.134;9.212;2023-07-02T09:21:00;99492.81;;;19.64;100.00
49945;BME280;35838;49.134;9.212;2023-07-02T09:22:34;99488.44;;;19.65;100.00
49945;BME280;35838;49.134;9.212;2023-07-02T09:24:16;99494.88;;;19.77;100.00
49945;BME280;35838;49.134;9.212;2023-07-02T09:25:50;99496.00;;;19.90;100.00
49945;BME280;35838;49.134;9.212;2023-07-02T09:27:33;99499.56;;;19.89;100.00
49945;BME280;35838;49.134;9.212;2023-07-02T09:29:06;99486.28;;;19.73;100.00
49945;BME280;35838;49.134;9.212;2023-07-02T09:30:48;99489.09;;;19.87;100.00
49945;BME280;35838;49.134;9.212;2023-07-02T09:32:25;99507.00;;;19.98;100.00
49945;BME280;35838;49.134;9.212;2023-07-02T09:34:01;99509.81;;;19.95;100.00
49945;BME280;35838;49.134;9.212;2023-07-02T09:35:34;99505.00;;;20.03;100.00
49945;BME280;35838;49.134;9.212;2023-07-02T09:37:09;99501.63;;;19.82;100.00
49945;BME280;35838;49.134;9.212;2023-07-02T09:38:42;99499.06;;;19.81;100.00
49945;BME280;35838;49.134;9.212;2023-07-02T09:40:16;99494.66;;;19.81;100.00
49945;BME280;35838;49.134;9.212;2023-07-02T09:41:51;99489.94;;;19.88;100.00
49945;BME280;35838;49.134;9.212;2023-07-02T09:43:22;99497.88;;;20.06;100.00
49945;BME280;35838;49.134;9.212;2023-07-02T09:44:57;99503.00;;;20.09;100.00
49945;BME280;35838;49.134;9.212;2023-07-02T09:46:31;99490.84;;;20.24;99.83
49945;BME280;35838;49.134;9.212;2023-07-02T09:48:03;99505.47;;;20.29;99.01
49945;BME280;35838;49.134;9.212;2023-07-02T09:49:39;99494.16;;;20.10;96.10
49945;BME280;35838;49.134;9.212;2023-07-02T09:51:12;99503.31;;;20.02;96.54
49945;BME280;35838;49.134;9.212;2023-07-02T09:52:46;99502.66;;;19.97;96.39
49945;BME280;35838;49.134;9.212;2023-07-02T09:54:18;99476.03;;;20.03;95.75
49945;BME280;35838;49.134;9.212;2023-07-02T09:55:55;99496.78;;;20.27;96.55
49945;BME280;35838;49.134;9.212;2023-07-02T09:57:29;99492.31;;;20.29;94.35
49945;BME280;35838;49.134;9.212;2023-07-02T09:59:03;99492.78;;;20.20;95.00
49945;BME280;35838;49.134;9.212;2023-07-02T10:00:37;99483.16;;;20.01;96.40
49945;BME280;35838;49.134;9.212;2023-07-02T10:02:11;99496.66;;;19.95;97.16
49945;BME280;35838;49.134;9.212;2023-07-02T10:03:45;99482.22;;;20.02;98.38
49945;BME280;35838;49.134;9.212;2023-07-02T10:05:24;99488.28;;;19.87;99.32
49945;BME280;35838;49.134;9.212;2023-07-02T10:06:58;99496.22;;;19.85;100.00
49945;BME280;35838;49.134;9.212;2023-07-02T10:08:32;99514.22;;;19.76;100.00
49945;BME280;35838;49.134;9.212;2023-07-02T10:10:06;99488.13;;;19.71;100.00
49945;BME280;35838;49.134;9.212;2023-07-02T10:11:42;99489.44;;;19.80;100.00
49945;BME280;35838;49.134;9.212;2023-07-02T10:13:26;99479.91;;;19.77;100.00
49945;BME280;35838;49.134;9.212;2023-07-02T10:14:59;99484.03;;;19.83;100.00
49945;BME280;35838;49.134;9.212;2023-07-02T10:16:34;99495.81;;;19.76;100.00
49945;BME280;35838;49.134;9.212;2023-07-02T10:18:05;99498.88;;;19.66;100.00
49945;BME280;35838;49.134;9.212;2023-07-02T10:19:49;99489.44;;;19.80;100.00
49945;BME280;35838;49.134;9.212;2023-07-02T10:21:23;99488.03;;;19.92;100.00
49945;BME280;35838;49.134;9.212;2023-07-02T10:22:56;99490.91;;;20.04;100.00
49945;BME280;35838;49.134;9.212;2023-07-02T10:24:27;99487.09;;;19.93;100.00
49945;BME280;35838;49.134;9.212;2023-07-02T10:26:10;99491.53;;;20.10;100.00
49945;BME280;35838;49.134;9.212;2023-07-02T10:27:47;99476.88;;;20.04;98.30
49945;BME280;35838;49.134;9.212;2023-07-02T10:29:21;99484.41;;;20.12;97.70
49945;BME280;35838;49.134;9.212;2023-07-02T10:30:55;99493.56;;;20.22;96.12
49945;BME280;35838;49.134;9.212;2023-07-02T10:32:29;99483.28;;;20.51;96.14
49945;BME280;35838;49.134;9.212;2023-07-02T10:34:04;99477.38;;;20.63;91.12
49945;BME280;35838;49.134;9.212;2023-07-02T10:35:38;99471.94;;;20.84;88.44
49945;BME280;35838;49.134;9.212;2023-07-02T10:37:09;99471.25;;;20.96;85.66
49945;BME280;35838;49.134;9.212;2023-07-02T10:38:42;99467.84;;;20.94;87.71
49945;BME280;35838;49.134;9.212;2023-07-02T10:40:16;99468.00;;;20.75;89.92
49945;BME280;35838;49.134;9.212;2023-07-02T10:41:50;99476.34;;;20.66;91.57
49945;BME280;35838;49.134;9.212;2023-07-02T10:43:26;99472.59;;;20.54;93.11
49945;BME280;35838;49.134;9.212;2023-07-02T10:45:00;99469.16;;;20.52;94.71
49945;BME280;35838;49.134;9.212;2023-07-02T10:46:34;99478.00;;;20.51;94.79
49945;BME280;35838;49.134;9.212;2023-07-02T10:48:08;99492.59;;;20.41;94.57
49945;BME280;35838;49.134;9.212;2023-07-02T10:49:42;99493.59;;;20.38;95.11
49945;BME280;35838;49.134;9.212;2023-07-02T10:51:13;99489.91;;;20.25;93.78
49945;BME280;35838;49.134;9.212;2023-07-02T10:52:47;99488.34;;;20.20;93.85
49945;BME280;35838;49.134;9.212;2023-07-02T10:54:21;99492.13;;;20.15;94.51
49945;BME280;35838;49.134;9.212;2023-07-02T10:55:54;99490.38;;;20.15;95.39
49945;BME280;35838;49.134;9.212;2023-07-02T10:57:29;99482.63;;;20.12;96.58
49945;BME280;35838;49.134;9.212;2023-07-02T10:59:06;99487.19;;;20.09;97.21
49945;BME280;35838;49.134;9.212;2023-07-02T11:00:45;99479.75;;;20.17;97.68
49945;BME280;35838;49.134;9.212;2023-07-02T11:02:19;99473.88;;;20.29;97.74
49945;BME280;35838;49.134;9.212;2023-07-02T11:03:57;99462.84;;;20.39;98.02
49945;BME280;35838;49.134;9.212;2023-07-02T11:05:28;99491.91;;;20.37;97.81
49945;BME280;35838;49.134;9.212;2023-07-02T11:07:02;99481.13;;;20.24;98.01
49945;BME280;35838;49.134;9.212;2023-07-02T11:08:36;99479.59;;;20.20;98.38
49945;BME280;35838;49.134;9.212;2023-07-02T11:10:10;99483.16;;;20.19;98.88
49945;BME280;35838;49.134;9.212;2023-07-02T11:11:49;99479.28;;;20.26;99.86
49945;BME280;35838;49.134;9.212;2023-07-02T11:13:23;99472.75;;;20.33;99.64
49945;BME280;35838;49.134;9.212;2023-07-02T11:15:09;99472.25;;;20.27;99.38
49945;BME280;35838;49.134;9.212;2023-07-02T11:16:42;99471.69;;;20.38;98.58
49945;BME280;35838;49.134;9.212;2023-07-02T11:18:16;99484.16;;;20.34;96.50
49945;BME280;35838;49.134;9.212;2023-07-02T11:19:52;99488.50;;;20.35;96.55
49945;BME280;35838;49.134;9.212;2023-07-02T11:21:26;99485.19;;;20.14;95.56